Etusivu
METAR-TAF:

METAR-TAF

Lentoasemat :

Charlotte, Michigan, Yhdysvallat

Leveyspiiri: 42-34-28N, Pituuspiiri: 084-48-41W, korkeus merenpinnasta: 271 m

Tämänhetkinen sää

Tämä raportti tehtiin 12 minuuttia sitten, kello 10.55 UTC
Tuuli 11 kn pohjoisesta puuskistuen 18 kn:hen
Lämpötila 4°C
Kosteus 81%
Ilmanpaine 1005 hPa
Näkyvyys: 16.1 km
Pilvistä 1900 ft:n korkeudessa

METAR: KFPK 201055Z AUTO 01011G18KT 10SM OVC019 04/01 A2969 RMK AO2 T00380010

Aika: 07:07 (11:07 UTC)


TAF: puuttuu

Säähavainnot ja -ennusteet yli 4000 lentoasemalta (METAR- ja TAF-raportit).

Käytössä olevat sääasemat on merkitty karttaan keltaisilla ja punaisilla pisteillä.

Aseta hiiri pisteen päälle nähdäksesi sääaseman nimen.

Klikkaa sitten nähdäksesi säähavainnot ja -ennusteet.

Kartan vaihtaminen: klikkaa mustalla rastilla varustettuja vihreitä pisteitä, niin voit zoomata sisään; viivalla varustettua vihreää pistettä, niin voit zoomata ulos tai vihreitä nuolia, niin pääset viereisille kartoille.


METAR-TAF: